createdAt,value
2022-10-14T00:01:20.109Z,100518.94
2022-10-14T00:03:23.949Z,100523.38
2022-10-14T00:05:28.280Z,100513.63
2022-10-14T00:07:32.232Z,100517.13
2022-10-14T00:09:36.520Z,100519.88
2022-10-14T00:11:42.228Z,100514.69
2022-10-14T00:13:46.228Z,100521.88
2022-10-14T00:15:51.316Z,100516.69
2022-10-14T00:17:57.660Z,100513.22
2022-10-14T00:20:02.212Z,100512.34
2022-10-14T00:22:05.956Z,100498.25
2022-10-14T00:24:10.576Z,100502.72
2022-10-14T00:26:19.814Z,100502.06
2022-10-14T00:28:23.635Z,100503.78
2022-10-14T00:30:27.667Z,100505.44
2022-10-14T00:32:33.099Z,100505.44
2022-10-14T00:34:38.611Z,100502.81
2022-10-14T00:36:42.788Z,100499.44
2022-10-14T00:38:52.868Z,100490.53
2022-10-14T00:40:57.051Z,100494.13
2022-10-14T00:43:00.637Z,100488.81
2022-10-14T00:45:08.951Z,100488.81
2022-10-14T00:47:13.380Z,100482.69
2022-10-14T00:49:19.873Z,100487.13
2022-10-14T00:51:25.525Z,100478.22
2022-10-14T00:53:31.034Z,100479.16
2022-10-14T00:55:36.009Z,100475.69
2022-10-14T00:57:41.080Z,100477.38
2022-10-14T00:59:46.275Z,100471.22
2022-10-14T01:01:50.456Z,100475.56
2022-10-14T01:03:54.301Z,100471.97
2022-10-14T01:06:05.911Z,100470.16
2022-10-14T01:08:16.605Z,100460.38
2022-10-14T01:10:30.217Z,100460.38
2022-10-14T01:12:42.861Z,100462.09
2022-10-14T01:14:59.647Z,100470.03
2022-10-14T01:17:12.560Z,100462.97
2022-10-14T01:19:42.739Z,100467.41
2022-10-14T01:21:54.331Z,100458.50
2022-10-14T01:24:33.979Z,100452.34
2022-10-14T01:26:55.178Z,100454.13
2022-10-14T01:29:15.154Z,100451.50
2022-10-14T01:31:23.861Z,100448.84
2022-10-14T01:33:34.571Z,100444.47
2022-10-14T01:35:55.690Z,100450.75
2022-10-14T01:38:03.095Z,100445.66
2022-10-14T01:40:14.569Z,100443.00
2022-10-14T01:42:23.649Z,100441.34
2022-10-14T01:44:30.740Z,100437.94
2022-10-14T01:46:38.979Z,100435.41
2022-10-14T01:48:47.232Z,100440.94
2022-10-14T01:50:53.942Z,100430.31
2022-10-14T01:53:03.305Z,100436.56
2022-10-14T01:55:13.328Z,100429.47
2022-10-14T01:57:21.819Z,100433.94
2022-10-14T01:59:27.974Z,100430.44
2022-10-14T02:01:31.904Z,100425.13
2022-10-14T02:03:48.779Z,100436.69
2022-10-14T02:05:59.439Z,100424.38
2022-10-14T02:08:12.250Z,100428.84
2022-10-14T02:10:29.010Z,100428.00
2022-10-14T02:12:39.484Z,100419.31
2022-10-14T02:14:51.542Z,100421.22
2022-10-14T02:17:02.374Z,100411.47
2022-10-14T02:19:16.186Z,100411.47
2022-10-14T02:21:26.067Z,100404.38
2022-10-14T02:23:34.215Z,100405.31
2022-10-14T02:25:41.598Z,100400.00
2022-10-14T02:27:46.841Z,100396.41
2022-10-14T02:29:55.540Z,100394.53
2022-10-14T02:32:01.581Z,100399.81
2022-10-14T02:34:12.181Z,100386.47
2022-10-14T02:36:19.372Z,100383.69
2022-10-14T02:38:23.148Z,100380.94
2022-10-14T02:40:34.689Z,100381.75
2022-10-14T02:42:37.986Z,100373.69
2022-10-14T02:44:53.616Z,100371.91
2022-10-14T02:46:57.296Z,100380.59
2022-10-14T02:49:04.656Z,100366.38
2022-10-14T02:51:09.479Z,100367.97
2022-10-14T02:53:17.477Z,100357.38
2022-10-14T02:55:22.434Z,100348.47
2022-10-14T02:57:26.016Z,100345.69
2022-10-14T02:59:29.240Z,100347.41
2022-10-14T03:01:37.378Z,100341.88
2022-10-14T03:03:42.638Z,100341.88
2022-10-14T03:05:45.977Z,100340.16
2022-10-14T03:07:51.993Z,100336.56
2022-10-14T03:09:56.929Z,100339.94
2022-10-14T03:12:00.720Z,100338.25
2022-10-14T03:14:05.029Z,100332.84
2022-10-14T03:16:09.251Z,100336.31
2022-10-14T03:18:17.613Z,100341.41
2022-10-14T03:20:23.757Z,100336.09
2022-10-14T03:22:31.819Z,100329.00
2022-10-14T03:24:37.245Z,100327.19
2022-10-14T03:26:59.032Z,100326.25
2022-10-14T03:29:02.999Z,100322.63
2022-10-14T03:31:24.869Z,100309.38
2022-10-14T03:33:56.120Z,100306.59
2022-10-14T03:35:59.821Z,100311.91
2022-10-14T03:38:16.935Z,100313.69
2022-10-14T03:40:22.680Z,100307.56
2022-10-14T03:42:27.151Z,100300.44
2022-10-14T03:44:31.578Z,100302.25
2022-10-14T03:46:57.691Z,100301.31
2022-10-14T03:49:06.001Z,100303.97
2022-10-14T03:51:10.316Z,100304.91
2022-10-14T03:53:14.466Z,100305.75
2022-10-14T03:55:19.609Z,100303.09
2022-10-14T03:57:27.201Z,100301.19
2022-10-14T03:59:33.919Z,100302.88
2022-10-14T04:01:37.243Z,100301.06
2022-10-14T04:03:54.186Z,100303.59
2022-10-14T04:05:57.876Z,100293.94
2022-10-14T04:08:04.709Z,100297.47
2022-10-14T04:10:09.625Z,100299.25
2022-10-14T04:12:17.412Z,100299.16
2022-10-14T04:14:38.485Z,100294.69
2022-10-14T04:16:46.063Z,100290.22
2022-10-14T04:18:53.296Z,100291.09
2022-10-14T04:21:01.620Z,100284.94
2022-10-14T04:23:05.793Z,100285.78
2022-10-14T04:25:11.069Z,100291.09
2022-10-14T04:27:14.486Z,100275.19
2022-10-14T04:29:25.264Z,100276.84
2022-10-14T04:31:35.956Z,100285.56
2022-10-14T04:33:39.752Z,100288.19
2022-10-14T04:35:51.787Z,100286.38
2022-10-14T04:38:01.313Z,100280.25
2022-10-14T04:40:07.139Z,100277.47
2022-10-14T04:42:17.150Z,100283.41
2022-10-14T04:44:24.725Z,100277.03
2022-10-14T04:46:31.620Z,100275.84
2022-10-14T04:48:36.731Z,100270.16
2022-10-14T04:50:41.069Z,100282.22
2022-10-14T04:53:00.748Z,100270.31
2022-10-14T04:55:04.574Z,100272.63
2022-10-14T04:57:14.875Z,100267.91
2022-10-14T04:59:23.029Z,100275.53
2022-10-14T05:01:41.762Z,100273.34
2022-10-14T05:03:47.187Z,100263.22
2022-10-14T05:05:53.029Z,100261.31
2022-10-14T05:07:57.288Z,100253.13
2022-10-14T05:10:07.534Z,100248.63
2022-10-14T05:12:17.054Z,100251.16
2022-10-14T05:14:26.228Z,100263.59
2022-10-14T05:16:41.756Z,100255.63
2022-10-14T05:18:47.600Z,100251.16
2022-10-14T05:20:51.024Z,100257.59
2022-10-14T05:22:57.312Z,100239.09
2022-10-14T05:25:01.812Z,100251.66
2022-10-14T05:27:06.255Z,100250.91
2022-10-14T05:29:12.231Z,100240.31
2022-10-14T05:31:16.966Z,100236.81
2022-10-14T05:33:27.152Z,100233.34
2022-10-14T05:35:57.172Z,100237.66
2022-10-14T05:38:02.011Z,100248.25
2022-10-14T05:40:11.954Z,100247.31
2022-10-14T05:42:15.241Z,100240.22
2022-10-14T05:44:19.923Z,100248.25
2022-10-14T05:46:24.572Z,100249.25
2022-10-14T05:48:32.342Z,100246.59
2022-10-14T05:50:37.383Z,100253.56
2022-10-14T05:52:45.476Z,100252.75
2022-10-14T05:54:54.702Z,100260.56
2022-10-14T05:57:01.682Z,100258.66
2022-10-14T05:59:05.719Z,100264.81
2022-10-14T06:01:11.020Z,100263.09
2022-10-14T06:03:17.342Z,100263.09
2022-10-14T06:05:20.657Z,100263.97
2022-10-14T06:07:25.402Z,100271.06
2022-10-14T06:09:28.846Z,100272.88
2022-10-14T06:11:32.102Z,100270.25
2022-10-14T06:13:35.633Z,100279.03
2022-10-14T06:15:39.037Z,100276.38
2022-10-14T06:17:42.838Z,100270.94
2022-10-14T06:19:46.387Z,100269.28
2022-10-14T06:21:49.935Z,100268.28
2022-10-14T06:23:55.060Z,100265.63
2022-10-14T06:25:58.607Z,100252.38
2022-10-14T06:28:04.742Z,100253.34
2022-10-14T06:30:09.175Z,100256.97
2022-10-14T06:32:12.392Z,100258.66
2022-10-14T06:34:15.820Z,100253.34
2022-10-14T06:36:19.163Z,100266.63
2022-10-14T06:38:22.703Z,100262.97
2022-10-14T06:40:27.486Z,100259.38
2022-10-14T06:42:30.924Z,100267.97
2022-10-14T06:44:35.421Z,100261.78
2022-10-14T06:46:38.900Z,100264.34
2022-10-14T06:48:43.986Z,100265.19
2022-10-14T06:50:50.449Z,100254.44
2022-10-14T06:52:53.898Z,100260.56
2022-10-14T06:54:57.328Z,100255.19
2022-10-14T06:57:01.929Z,100260.56
2022-10-14T06:59:05.961Z,100257.09
2022-10-14T07:01:10.207Z,100260.69
2022-10-14T07:03:13.558Z,100252.03
2022-10-14T07:05:17.455Z,100258.41
2022-10-14T07:07:20.948Z,100260.34
2022-10-14T07:09:24.311Z,100266.50
2022-10-14T07:11:27.603Z,100264.69
2022-10-14T07:13:34.175Z,100270.00
2022-10-14T07:15:40.123Z,100276.16
2022-10-14T07:17:43.860Z,100279.78
2022-10-14T07:19:47.225Z,100281.56
2022-10-14T07:21:50.553Z,100276.38
2022-10-14T07:23:54.990Z,100278.19
2022-10-14T07:25:59.135Z,100279.16
2022-10-14T07:28:02.539Z,100279.28
2022-10-14T07:30:10.671Z,100283.75
2022-10-14T07:32:17.439Z,100285.41
2022-10-14T07:34:21.248Z,100283.75
2022-10-14T07:36:25.153Z,100283.75
2022-10-14T07:38:28.851Z,100282.06
2022-10-14T07:40:32.787Z,100285.66
2022-10-14T07:42:36.398Z,100292.78
2022-10-14T07:44:40.656Z,100289.28
2022-10-14T07:46:47.626Z,100303.28
2022-10-14T07:48:57.092Z,100307.38
2022-10-14T07:51:03.108Z,100309.91
2022-10-14T07:53:07.320Z,100302.69
2022-10-14T07:55:11.342Z,100305.34
2022-10-14T07:57:15.195Z,100302.78
2022-10-14T07:59:19.468Z,100308.34
2022-10-14T08:01:24.817Z,100313.91
2022-10-14T08:03:29.983Z,100308.81
2022-10-14T08:05:38.016Z,100308.81
2022-10-14T08:07:42.600Z,100307.00
2022-10-14T08:09:46.262Z,100320.16
2022-10-14T08:11:50.113Z,100313.66
2022-10-14T08:13:54.465Z,100316.31
2022-10-14T08:15:58.599Z,100311.94
2022-10-14T08:18:02.514Z,100308.59
2022-10-14T08:20:09.120Z,100304.22
2022-10-14T08:22:12.994Z,100308.59
2022-10-14T08:24:16.618Z,100315.34
2022-10-14T08:26:24.152Z,100313.19
2022-10-14T08:28:28.350Z,100304.88
2022-10-14T08:30:32.311Z,100310.66
2022-10-14T08:32:36.086Z,100306.44
2022-10-14T08:34:39.912Z,100314.44
2022-10-14T08:36:45.668Z,100308.75
2022-10-14T08:38:50.373Z,100306.59
2022-10-14T08:41:04.025Z,100317.31
2022-10-14T08:43:17.667Z,100324.78
2022-10-14T08:45:28.307Z,100326.31
2022-10-14T08:47:38.269Z,100318.50
2022-10-14T08:49:53.501Z,100323.00
2022-10-14T08:52:02.911Z,100331.25
2022-10-14T08:54:10.868Z,100326.13
2022-10-14T08:56:17.380Z,100320.50
2022-10-14T08:58:27.307Z,100320.91
2022-10-14T09:00:34.782Z,100327.44
2022-10-14T09:02:44.193Z,100327.22
2022-10-14T09:04:48.358Z,100320.69
2022-10-14T09:06:53.877Z,100331.97
2022-10-14T09:09:08.218Z,100337.31
2022-10-14T09:11:15.266Z,100340.88
2022-10-14T09:13:24.945Z,100336.94
2022-10-14T09:15:36.037Z,100333.03
2022-10-14T09:17:45.565Z,100334.13
2022-10-14T09:19:53.420Z,100329.47
2022-10-14T09:21:58.053Z,100338.84
2022-10-14T09:24:13.832Z,100337.13
2022-10-14T09:26:21.939Z,100342.13
2022-10-14T09:28:35.098Z,100342.41
2022-10-14T09:30:41.133Z,100342.13
2022-10-14T09:32:49.363Z,100338.22
2022-10-14T09:34:55.072Z,100340.72
2022-10-14T09:37:08.190Z,100333.56
2022-10-14T09:39:13.635Z,100327.66
2022-10-14T09:41:19.312Z,100325.81
2022-10-14T09:43:25.513Z,100326.88
2022-10-14T09:45:32.145Z,100328.16
2022-10-14T09:47:44.578Z,100313.22
2022-10-14T09:49:50.244Z,100317.97
2022-10-14T09:51:57.030Z,100306.56
2022-10-14T09:54:04.141Z,100311.53
2022-10-14T09:56:11.351Z,100300.22
2022-10-14T09:58:19.082Z,100300.22
2022-10-14T10:00:31.567Z,100298.09
2022-10-14T10:02:42.330Z,100290.38
2022-10-14T10:04:47.997Z,100291.50
2022-10-14T10:06:55.501Z,100288.50
2022-10-14T10:09:01.734Z,100298.09
2022-10-14T10:11:09.075Z,100311.31
2022-10-14T10:13:32.722Z,100308.59
2022-10-14T10:15:36.560Z,100314.50
2022-10-14T10:17:41.688Z,100301.72
2022-10-14T10:19:51.308Z,100308.59
2022-10-14T10:21:55.776Z,100303.66
2022-10-14T10:24:01.798Z,100300.72
2022-10-14T10:26:26.403Z,100301.13
2022-10-14T10:28:32.332Z,100296.22
2022-10-14T10:30:44.611Z,100290.75
2022-10-14T10:32:55.111Z,100284.16
2022-10-14T10:35:09.142Z,100291.47
2022-10-14T10:37:26.375Z,100288.66
2022-10-14T10:39:39.116Z,100284.44
2022-10-14T10:41:58.839Z,100291.03
2022-10-14T10:44:23.081Z,100294.78
2022-10-14T10:47:02.869Z,100296.09
2022-10-14T10:49:18.003Z,100290.97
2022-10-14T10:51:28.484Z,100297.59
2022-10-14T10:53:46.821Z,100287.13
2022-10-14T10:56:01.034Z,100289.00
2022-10-14T10:58:22.039Z,100285.88
2022-10-14T11:00:30.674Z,100285.19
2022-10-14T11:03:09.864Z,100280.00
2022-10-14T11:05:19.696Z,100287.84
2022-10-14T11:07:53.160Z,100280.84
2022-10-14T11:10:26.076Z,100270.78
2022-10-14T11:12:38.765Z,100282.59
2022-10-14T11:15:16.261Z,100283.88
2022-10-14T11:17:28.391Z,100278.41
2022-10-14T11:19:41.437Z,100277.72
2022-10-14T11:21:56.336Z,100274.22
2022-10-14T11:26:39.054Z,100272.53
2022-10-14T11:28:52.874Z,100262.72
2022-10-14T11:31:04.374Z,100265.50
2022-10-14T11:33:26.764Z,100269.13
2022-10-14T11:35:41.220Z,100256.56
2022-10-14T11:38:01.787Z,100259.09
2022-10-14T11:40:17.378Z,100258.25
2022-10-14T11:42:33.585Z,100266.34
2022-10-14T11:44:39.140Z,100255.69
2022-10-14T11:46:48.754Z,100256.84
2022-10-14T11:49:03.316Z,100254.69
2022-10-14T11:51:15.592Z,100258.72
2022-10-14T11:53:26.439Z,100257.03
2022-10-14T11:55:36.399Z,100262.34
2022-10-14T11:57:44.598Z,100262.34
2022-10-14T11:59:52.517Z,100267.66
2022-10-14T12:02:02.558Z,100268.19
2022-10-14T12:04:17.582Z,100277.50
2022-10-14T12:06:26.036Z,100284.34
2022-10-14T12:08:35.646Z,100272.66
2022-10-14T12:10:46.470Z,100269.53
2022-10-14T12:12:53.398Z,100281.13
2022-10-14T12:15:00.639Z,100269.06
2022-10-14T12:17:08.030Z,100269.47
2022-10-14T12:19:17.045Z,100254.34
2022-10-14T12:21:29.625Z,100264.84
2022-10-14T12:23:38.864Z,100280.66
2022-10-14T12:25:52.573Z,100275.47
2022-10-14T12:27:57.500Z,100279.50
2022-10-14T12:30:03.160Z,100278.19
2022-10-14T12:32:21.630Z,100275.94
2022-10-14T12:34:34.953Z,100277.47
2022-10-14T12:36:40.682Z,100268.38
2022-10-14T12:38:45.143Z,100268.59
2022-10-14T12:40:50.768Z,100267.00
2022-10-14T12:43:00.709Z,100261.28
2022-10-14T12:45:15.683Z,100252.09
2022-10-14T12:47:24.698Z,100254.38
2022-10-14T12:49:37.358Z,100256.03
2022-10-14T12:51:55.581Z,100253.28
2022-10-14T12:54:09.015Z,100239.72
2022-10-14T12:56:28.429Z,100238.66
2022-10-14T12:58:36.561Z,100250.91
2022-10-14T13:00:42.053Z,100247.72
2022-10-14T13:02:47.742Z,100242.84
2022-10-14T13:04:56.351Z,100242.31
2022-10-14T13:07:47.568Z,100231.16
2022-10-14T13:09:59.343Z,100233.03
2022-10-14T13:12:28.262Z,100231.06
2022-10-14T13:14:35.771Z,100222.38
2022-10-14T13:17:28.883Z,100210.31
2022-10-14T13:19:48.295Z,100214.22
2022-10-14T13:21:55.032Z,100207.47
2022-10-14T13:24:02.218Z,100209.94
2022-10-14T13:26:20.902Z,100203.59
2022-10-14T13:28:32.254Z,100214.63
2022-10-14T13:30:47.408Z,100212.25
2022-10-14T13:32:55.759Z,100211.78
2022-10-14T13:35:08.529Z,100203.22
2022-10-14T13:37:30.042Z,100207.00
2022-10-14T13:39:35.419Z,100199.41
2022-10-14T13:41:40.946Z,100201.22
2022-10-14T13:43:45.195Z,100195.91
2022-10-14T13:45:52.234Z,100188.88
2022-10-14T13:47:56.359Z,100193.25
2022-10-14T13:50:00.057Z,100191.41
2022-10-14T13:52:06.272Z,100180.78
2022-10-14T13:54:22.210Z,100180.63
2022-10-14T13:56:29.591Z,100185.25
2022-10-14T14:00:59.955Z,100163.00
2022-10-14T14:03:05.949Z,100152.38
2022-10-14T14:05:17.696Z,100158.53
2022-10-14T14:07:59.083Z,100158.38
2022-10-14T14:09:52.845Z,100152.09
2022-10-14T14:12:01.226Z,100155.59
2022-10-14T14:14:08.671Z,100155.31
2022-10-14T14:16:21.725Z,100149.88
2022-10-14T14:18:38.100Z,100159.28
2022-10-14T14:20:58.883Z,100150.56
2022-10-14T14:23:02.640Z,100153.25
2022-10-14T14:25:34.521Z,100155.06
2022-10-14T14:27:47.061Z,100156.03
2022-10-14T14:29:52.639Z,100157.72
2022-10-14T14:32:13.346Z,100157.47
2022-10-14T14:34:19.612Z,100151.72
2022-10-14T14:36:27.785Z,100143.34
2022-10-14T14:38:54.411Z,100152.91
2022-10-14T14:41:07.739Z,100142.50
2022-10-14T14:43:11.709Z,100144.03
2022-10-14T14:45:20.624Z,100133.53
2022-10-14T14:47:30.141Z,100135.50
2022-10-14T14:49:37.203Z,100132.13
2022-10-14T14:51:42.362Z,100138.41
2022-10-14T14:53:51.416Z,100130.28
2022-10-14T14:56:10.535Z,100121.47
2022-10-14T14:58:27.406Z,100115.88
2022-10-14T15:00:32.386Z,100115.88
2022-10-14T15:02:37.607Z,100114.22
2022-10-14T15:04:42.248Z,100114.47
2022-10-14T15:06:52.409Z,100107.72
2022-10-14T15:09:00.604Z,100118.38
2022-10-14T15:11:07.860Z,100112.50
2022-10-14T15:13:28.899Z,100114.44
2022-10-14T15:15:34.659Z,100111.09
2022-10-14T15:17:46.544Z,100100.69
2022-10-14T15:19:51.755Z,100104.47
2022-10-14T15:22:29.626Z,100101.09
2022-10-14T15:24:34.737Z,100098.72
2022-10-14T15:26:41.263Z,100098.84
2022-10-14T15:28:47.459Z,100090.88
2022-10-14T15:31:02.996Z,100097.03
2022-10-14T15:33:17.762Z,100088.34
2022-10-14T15:35:24.456Z,100084.69
2022-10-14T15:37:29.414Z,100082.75
2022-10-14T15:39:33.925Z,100084.44
2022-10-14T15:41:39.037Z,100085.41
2022-10-14T15:43:44.472Z,100068.59
2022-10-14T15:46:13.103Z,100069.59
2022-10-14T15:48:19.893Z,100078.41
2022-10-14T15:50:26.766Z,100077.69
2022-10-14T15:52:33.154Z,100076.00
2022-10-14T15:54:37.428Z,100079.63
2022-10-14T15:56:41.551Z,100068.41
2022-10-14T15:58:46.718Z,100072.06
2022-10-14T16:00:50.505Z,100074.72
2022-10-14T16:02:58.743Z,100076.41
2022-10-14T16:07:26.413Z,100066.75
2022-10-14T16:09:31.868Z,100069.53
2022-10-14T16:11:37.169Z,100059.00
2022-10-14T16:13:41.888Z,100061.94
2022-10-14T16:15:50.729Z,100056.03
2022-10-14T16:17:55.365Z,100049.06
2022-10-14T16:19:59.384Z,100051.88
2022-10-14T16:22:03.554Z,100047.66
2022-10-14T16:26:18.333Z,100045.50
2022-10-14T16:28:22.170Z,100042.41
2022-10-14T16:30:28.240Z,100037.34
2022-10-14T16:32:33.734Z,100041.13
2022-10-14T16:34:37.980Z,100034.97
2022-10-14T16:36:42.282Z,100034.25
2022-10-14T16:38:45.992Z,100034.50
2022-10-14T16:40:56.747Z,100035.75
2022-10-14T16:43:00.686Z,100035.28
2022-10-14T16:45:04.433Z,100035.56
2022-10-14T16:47:20.862Z,100039.59
2022-10-14T16:49:26.462Z,100036.34
2022-10-14T16:51:30.296Z,100025.16
2022-10-14T16:53:44.469Z,100023.84
2022-10-14T16:55:48.176Z,100029.41
2022-10-14T16:57:51.735Z,100035.00
2022-10-14T16:59:55.576Z,100021.13
2022-10-14T17:01:59.811Z,100022.34
2022-10-14T17:04:03.472Z,100018.13
2022-10-14T17:06:09.150Z,100013.06
2022-10-14T17:08:12.719Z,100016.81
2022-10-14T17:10:19.140Z,100013.59
2022-10-14T17:12:23.100Z,100004.19
2022-10-14T17:14:28.292Z,100000.13
2022-10-14T17:16:32.252Z,100008.44
2022-10-14T17:18:38.076Z,100015.84
2022-10-14T17:20:41.611Z,100006.44
2022-10-14T17:22:46.347Z,100004.28
2022-10-14T17:24:50.445Z,100005.53
2022-10-14T17:26:53.895Z,100000.69
2022-10-14T17:28:58.053Z,100001.91
2022-10-14T17:31:01.725Z,99997.13
2022-10-14T17:33:05.827Z,100002.69
2022-10-14T17:35:14.416Z,100004.88
2022-10-14T17:37:20.013Z,100002.72
2022-10-14T17:39:29.150Z,100006.59
2022-10-14T17:41:34.447Z,99992.00
2022-10-14T17:43:38.542Z,99993.38
2022-10-14T17:45:42.512Z,99996.41
2022-10-14T17:47:47.199Z,100006.41
2022-10-14T17:49:51.959Z,99996.03
2022-10-14T17:51:55.962Z,99995.31
2022-10-14T17:54:27.235Z,100005.22
2022-10-14T17:56:35.523Z,99998.47
2022-10-14T17:58:39.583Z,99988.09
2022-10-14T18:00:43.821Z,99994.50
2022-10-14T18:02:48.179Z,99987.78
2022-10-14T18:04:52.392Z,99988.84
2022-10-14T18:06:57.110Z,99985.47
2022-10-14T18:09:04.361Z,99991.00
2022-10-14T18:11:11.389Z,99986.09
2022-10-14T18:13:18.122Z,99991.75
2022-10-14T18:15:22.724Z,99987.53
2022-10-14T18:17:26.706Z,99983.31
2022-10-14T18:19:30.637Z,99991.38
2022-10-14T18:21:35.436Z,99985.50
2022-10-14T18:23:41.469Z,99985.72
2022-10-14T18:25:44.977Z,99987.91
2022-10-14T18:27:49.573Z,99986.56
2022-10-14T18:29:55.061Z,99980.75
2022-10-14T18:31:59.628Z,99979.19
2022-10-14T18:34:03.912Z,99981.22
2022-10-14T18:36:10.704Z,99974.34
2022-10-14T18:38:15.697Z,99975.34
2022-10-14T18:40:21.797Z,99968.34
2022-10-14T18:42:26.324Z,99966.91
2022-10-14T18:44:31.392Z,99971.72
2022-10-14T18:46:38.318Z,99969.44
2022-10-14T18:48:42.639Z,99960.13
2022-10-14T18:50:47.054Z,99962.19
2022-10-14T18:52:51.234Z,99966.16
2022-10-14T18:54:56.195Z,99968.53
2022-10-14T18:57:00.099Z,99966.34
2022-10-14T18:59:06.472Z,99968.63
2022-10-14T19:01:12.010Z,99971.75
2022-10-14T19:03:17.507Z,99966.78
2022-10-14T19:05:21.332Z,99965.09
2022-10-14T19:07:27.494Z,99965.31
2022-10-14T19:09:34.546Z,99959.53
2022-10-14T19:11:38.619Z,99965.28
2022-10-14T19:13:42.457Z,99954.94
2022-10-14T19:15:54.203Z,99954.69
2022-10-14T19:17:59.226Z,99950.25
2022-10-14T19:20:08.444Z,99946.88
2022-10-14T19:22:13.122Z,99943.38
2022-10-14T19:24:18.532Z,99941.72
2022-10-14T19:26:24.862Z,99926.78
2022-10-14T19:28:29.120Z,99924.25
2022-10-14T19:30:33.458Z,99921.50
2022-10-14T19:32:37.743Z,99919.56
2022-10-14T19:34:46.264Z,99916.09
2022-10-14T19:36:53.022Z,99911.16
2022-10-14T19:38:59.335Z,99913.69
2022-10-14T19:41:04.966Z,99901.16
2022-10-14T19:43:09.230Z,99901.06
2022-10-14T19:45:13.249Z,99893.13
2022-10-14T19:47:17.414Z,99895.75
2022-10-14T19:49:22.176Z,99888.81
2022-10-14T19:51:27.975Z,99887.22
2022-10-14T19:53:36.147Z,99888.31
2022-10-14T19:55:42.184Z,99886.97
2022-10-14T19:57:46.132Z,99882.88
2022-10-14T19:59:50.111Z,99874.44
2022-10-14T20:01:53.729Z,99876.44
2022-10-14T20:03:58.641Z,99875.75
2022-10-14T20:06:03.842Z,99869.00
2022-10-14T20:08:08.077Z,99865.59
2022-10-14T20:10:14.086Z,99859.84
2022-10-14T20:12:18.461Z,99858.38
2022-10-14T20:14:22.777Z,99851.72
2022-10-14T20:16:27.578Z,99858.31
2022-10-14T20:18:32.565Z,99844.59
2022-10-14T20:20:36.378Z,99836.91
2022-10-14T20:22:40.333Z,99831.72
2022-10-14T20:24:45.326Z,99827.28
2022-10-14T20:26:51.046Z,99829.91
2022-10-14T20:28:55.132Z,99819.81
2022-10-14T20:31:00.053Z,99821.94
2022-10-14T20:33:04.526Z,99822.19
2022-10-14T20:35:14.154Z,99821.56
2022-10-14T20:37:21.870Z,99812.81
2022-10-14T20:39:28.608Z,99812.81
2022-10-14T20:41:32.948Z,99805.59
2022-10-14T20:43:39.012Z,99801.28
2022-10-14T20:45:44.469Z,99803.69
2022-10-14T20:47:53.507Z,99795.75
2022-10-14T20:49:58.215Z,99797.56
2022-10-14T20:52:02.911Z,99796.72
2022-10-14T20:54:10.963Z,99787.84
2022-10-14T20:56:16.944Z,99783.63
2022-10-14T20:58:21.401Z,99773.88
2022-10-14T21:00:28.216Z,99776.66
2022-10-14T21:02:33.069Z,99774.97
2022-10-14T21:04:38.047Z,99770.53
2022-10-14T21:06:42.560Z,99768.72
2022-10-14T21:08:47.967Z,99768.59
2022-10-14T21:10:59.942Z,99758.78
2022-10-14T21:13:04.260Z,99757.81
2022-10-14T21:15:10.254Z,99756.75
2022-10-14T21:17:16.522Z,99752.06
2022-10-14T21:19:21.008Z,99753.53
2022-10-14T21:21:26.200Z,99754.03
2022-10-14T21:23:31.557Z,99749.25
2022-10-14T21:25:35.188Z,99752.25
2022-10-14T21:27:39.450Z,99747.34
2022-10-14T21:29:43.795Z,99746.88
2022-10-14T21:31:48.478Z,99748.31
2022-10-14T21:34:04.160Z,99737.63
2022-10-14T21:36:11.175Z,99741.00
2022-10-14T21:38:14.991Z,99739.19
2022-10-14T21:40:18.969Z,99732.09
2022-10-14T21:42:23.109Z,99731.88
2022-10-14T21:44:27.667Z,99733.53
2022-10-14T21:46:31.372Z,99720.22
2022-10-14T21:48:35.388Z,99718.28
2022-10-14T21:50:40.545Z,99720.81
2022-10-14T21:52:44.138Z,99720.69
2022-10-14T21:54:47.595Z,99707.47
2022-10-14T21:56:51.409Z,99706.63
2022-10-14T21:58:55.801Z,99702.16
2022-10-14T22:01:04.561Z,99703.03
2022-10-14T22:03:08.510Z,99694.34
2022-10-14T22:05:12.542Z,99693.66
2022-10-14T22:07:17.821Z,99687.75
2022-10-14T22:09:21.809Z,99681.75
2022-10-14T22:11:27.817Z,99682.84
2022-10-14T22:13:32.844Z,99678.50
2022-10-14T22:15:37.087Z,99679.56
2022-10-14T22:17:41.061Z,99677.41
2022-10-14T22:19:44.611Z,99679.44
2022-10-14T22:21:48.411Z,99668.38
2022-10-14T22:23:54.143Z,99664.41
2022-10-14T22:26:01.408Z,99661.91
2022-10-14T22:28:06.411Z,99654.69
2022-10-14T22:30:10.668Z,99651.94
2022-10-14T22:32:14.406Z,99642.31
2022-10-14T22:34:19.292Z,99637.75
2022-10-14T22:36:25.260Z,99634.97
2022-10-14T22:38:29.154Z,99618.03
2022-10-14T22:40:35.133Z,99610.84
2022-10-14T22:42:42.056Z,99609.75
2022-10-14T22:44:46.241Z,99608.06
2022-10-14T22:46:49.873Z,99597.88
2022-10-14T22:48:56.471Z,99590.16
2022-10-14T22:51:04.912Z,99582.59
2022-10-14T22:53:08.628Z,99573.13
2022-10-14T22:55:12.390Z,99570.47
2022-10-14T22:57:17.771Z,99561.47
2022-10-14T22:59:21.521Z,99549.94
2022-10-14T23:01:28.013Z,99546.31
2022-10-14T23:03:33.773Z,99531.19
2022-10-14T23:05:37.895Z,99534.66
2022-10-14T23:07:42.302Z,99528.28
2022-10-14T23:09:46.500Z,99517.47
2022-10-14T23:11:50.152Z,99512.91
2022-10-14T23:13:55.709Z,99514.47
2022-10-14T23:15:59.984Z,99509.06
2022-10-14T23:18:04.223Z,99504.72
2022-10-14T23:20:09.138Z,99492.38
2022-10-14T23:22:12.932Z,99491.50
2022-10-14T23:24:16.684Z,99492.38
2022-10-14T23:26:22.697Z,99488.75
2022-10-14T23:28:26.661Z,99487.78
2022-10-14T23:30:31.779Z,99478.16
2022-10-14T23:32:35.612Z,99472.03
2022-10-14T23:34:39.550Z,99477.19
2022-10-14T23:36:43.931Z,99470.47
2022-10-14T23:38:47.859Z,99463.28
2022-10-14T23:40:51.769Z,99472.56
2022-10-14T23:42:55.430Z,99469.31
2022-10-14T23:44:59.191Z,99475.34
2022-10-14T23:47:04.569Z,99474.50
2022-10-14T23:49:25.075Z,99469.94
2022-10-14T23:51:31.635Z,99469.56
2022-10-14T23:53:36.473Z,99466.09
2022-10-14T23:55:41.247Z,99470.66
2022-10-14T23:57:44.895Z,99459.63
2022-10-14T23:59:48.884Z,99452.06
